createdAt,value
2023-08-02T00:01:18.182Z,16.37
2023-08-02T00:06:25.727Z,16.22
2023-08-02T00:11:33.648Z,16.10
2023-08-02T00:16:42.566Z,16.03
2023-08-02T00:21:51.057Z,15.95
2023-08-02T00:26:58.238Z,15.89
2023-08-02T00:32:05.817Z,15.83
2023-08-02T00:37:14.533Z,15.83
2023-08-02T00:42:23.572Z,15.86
2023-08-02T00:47:32.469Z,15.85
2023-08-02T00:52:40.227Z,15.83
2023-08-02T00:57:47.649Z,15.83
2023-08-02T01:02:55.247Z,15.84
2023-08-02T01:08:07.066Z,15.80
2023-08-02T01:13:20.067Z,15.74
2023-08-02T01:18:27.930Z,15.72
2023-08-02T01:23:35.707Z,15.72
2023-08-02T01:28:47.200Z,15.72
2023-08-02T01:33:58.532Z,15.69
2023-08-02T01:39:08.591Z,15.64
2023-08-02T01:44:16.193Z,15.62
2023-08-02T01:49:24.307Z,15.63
2023-08-02T01:54:31.691Z,15.61
2023-08-02T01:59:39.564Z,15.59
2023-08-02T02:04:46.923Z,15.56
2023-08-02T02:09:54.530Z,15.52
2023-08-02T02:15:02.993Z,15.51
2023-08-02T02:20:14.066Z,15.55
2023-08-02T02:25:21.414Z,15.56
2023-08-02T02:30:29.435Z,15.56
2023-08-02T02:35:36.880Z,15.53
2023-08-02T02:40:44.899Z,15.49
2023-08-02T02:45:52.041Z,15.49
2023-08-02T02:50:59.427Z,15.51
2023-08-02T02:56:07.492Z,15.52
2023-08-02T03:01:15.757Z,15.51
2023-08-02T03:06:23.282Z,15.52
2023-08-02T03:11:30.864Z,15.52
2023-08-02T03:25:05.714Z,15.51
2023-08-02T03:30:13.858Z,15.48
2023-08-02T03:35:22.465Z,15.47
2023-08-02T03:40:30.140Z,15.46
2023-08-02T03:45:39.210Z,15.46
2023-08-02T03:50:46.694Z,15.46
2023-08-02T03:55:56.651Z,15.43
2023-08-02T04:01:04.257Z,15.39
2023-08-02T04:06:12.238Z,15.38
2023-08-02T04:11:19.588Z,15.36
2023-08-02T04:16:27.419Z,15.36
2023-08-02T04:21:37.166Z,15.39
2023-08-02T04:26:44.835Z,15.43
2023-08-02T04:31:52.610Z,15.47
2023-08-02T04:40:42.711Z,15.61
2023-08-02T04:45:50.142Z,15.61
2023-08-02T04:50:57.557Z,15.64
2023-08-02T04:56:10.315Z,15.71
2023-08-02T05:01:18.129Z,15.78
2023-08-02T05:06:25.878Z,15.86
2023-08-02T05:11:33.800Z,15.93
2023-08-02T05:16:41.242Z,16.00
2023-08-02T05:21:49.572Z,16.11
2023-08-02T05:26:57.845Z,16.19
2023-08-02T05:32:05.446Z,16.30
2023-08-02T05:37:14.070Z,16.41
2023-08-02T05:42:21.541Z,16.51
2023-08-02T05:47:29.599Z,16.64
2023-08-02T05:52:37.010Z,16.80
2023-08-02T05:57:44.833Z,16.95
2023-08-02T06:02:52.160Z,17.09
2023-08-02T06:07:59.685Z,17.20
2023-08-02T06:13:07.110Z,17.29
2023-08-02T06:18:14.969Z,17.35
2023-08-02T06:23:22.497Z,17.48
2023-08-02T06:28:30.502Z,17.56
2023-08-02T06:33:37.804Z,17.58
2023-08-02T06:38:46.771Z,17.58
2023-08-02T06:43:54.286Z,17.63
2023-08-02T06:49:02.291Z,17.70
2023-08-02T06:54:10.190Z,17.69
2023-08-02T06:59:18.593Z,17.68
2023-08-02T07:04:26.472Z,17.75
2023-08-02T07:09:34.587Z,17.87
2023-08-02T07:14:42.373Z,17.93
2023-08-02T07:19:50.861Z,17.97
2023-08-02T07:24:59.024Z,18.03
2023-08-02T07:30:10.209Z,18.13
2023-08-02T07:35:18.331Z,18.25
2023-08-02T07:40:25.991Z,18.38
2023-08-02T07:45:33.251Z,18.42
2023-08-02T07:50:40.981Z,18.48
2023-08-02T07:55:49.898Z,18.57
2023-08-02T08:00:58.333Z,18.58
2023-08-02T08:06:13.198Z,18.68
2023-08-02T08:11:22.497Z,18.85
2023-08-02T08:16:31.801Z,19.07
2023-08-02T08:21:39.752Z,19.11
2023-08-02T08:26:47.953Z,19.16
2023-08-02T08:31:57.002Z,19.23
2023-08-02T08:37:04.448Z,19.38
2023-08-02T08:42:15.119Z,19.76
2023-08-02T08:47:24.584Z,20.12
2023-08-02T08:52:35.625Z,20.34
2023-08-02T08:57:45.589Z,20.45
2023-08-02T09:02:53.859Z,20.50
2023-08-02T09:08:02.661Z,20.77
2023-08-02T09:13:22.141Z,20.88
2023-08-02T09:18:37.880Z,21.06
2023-08-02T09:23:50.217Z,21.10
2023-08-02T09:29:04.507Z,21.24
2023-08-02T09:34:11.877Z,21.43
2023-08-02T09:39:20.755Z,21.64
2023-08-02T09:44:28.541Z,21.80
2023-08-02T09:49:37.361Z,21.87
2023-08-02T09:54:46.794Z,21.82
2023-08-02T09:59:55.901Z,21.67
2023-08-02T10:05:04.619Z,21.70
2023-08-02T10:10:19.507Z,21.76
2023-08-02T10:15:28.907Z,21.76
2023-08-02T10:20:38.069Z,21.81
2023-08-02T10:25:46.772Z,21.88
2023-08-02T10:30:55.320Z,21.98
2023-08-02T10:36:04.562Z,22.10
2023-08-02T10:41:14.736Z,22.10
2023-08-02T10:46:24.254Z,22.02
2023-08-02T10:51:35.334Z,21.97
2023-08-02T10:57:15.763Z,22.01
2023-08-02T11:02:26.908Z,21.99
2023-08-02T11:07:36.472Z,21.97
2023-08-02T11:12:43.936Z,21.92
2023-08-02T11:17:56.761Z,21.97
2023-08-02T11:23:04.326Z,22.16
2023-08-02T11:28:11.909Z,22.33
2023-08-02T11:33:20.105Z,22.45
2023-08-02T11:38:29.240Z,22.59
2023-08-02T11:43:40.836Z,22.62
2023-08-02T11:48:48.596Z,22.60
2023-08-02T11:54:00.629Z,22.66
2023-08-02T11:59:09.970Z,22.72
2023-08-02T12:04:17.771Z,22.79
2023-08-02T12:09:44.591Z,22.84
2023-08-02T12:14:52.334Z,22.91
2023-08-02T12:20:02.402Z,22.97
2023-08-02T12:25:11.972Z,23.04
2023-08-02T12:30:22.168Z,23.11
2023-08-02T12:35:32.060Z,23.21
2023-08-02T12:40:42.381Z,23.30
2023-08-02T12:45:50.171Z,23.26
2023-08-02T12:50:57.757Z,23.25
2023-08-02T12:56:05.969Z,23.39
2023-08-02T13:01:16.035Z,23.47
2023-08-02T13:06:24.025Z,23.41
2023-08-02T13:11:31.944Z,23.37
2023-08-02T13:16:40.698Z,23.37
2023-08-02T13:21:48.750Z,23.48
2023-08-02T13:26:56.258Z,23.58
2023-08-02T13:32:04.080Z,23.65
2023-08-02T13:37:12.044Z,23.71
2023-08-02T13:42:19.911Z,23.75
2023-08-02T13:47:27.733Z,23.85
2023-08-02T13:52:36.405Z,23.93
2023-08-02T13:57:44.023Z,24.01
2023-08-02T14:02:52.015Z,24.03
2023-08-02T14:08:00.247Z,24.06
2023-08-02T14:13:09.814Z,24.07
2023-08-02T14:18:25.583Z,24.09
2023-08-02T14:23:31.246Z,24.16
2023-08-02T14:28:39.189Z,24.24
2023-08-02T14:33:48.343Z,24.32
2023-08-02T14:40:59.827Z,24.41
2023-08-02T14:46:04.489Z,24.38
2023-08-02T14:51:11.622Z,24.34
2023-08-02T14:56:15.644Z,24.30
2023-08-02T15:01:19.788Z,24.27
2023-08-02T15:06:26.302Z,24.24
2023-08-02T15:11:31.774Z,24.19
2023-08-02T15:16:36.795Z,24.12
2023-08-02T15:21:41.372Z,24.09
2023-08-02T15:26:48.267Z,24.09
2023-08-02T15:31:53.317Z,24.05
2023-08-02T15:36:57.549Z,24.03
2023-08-02T15:42:01.896Z,24.02
2023-08-02T15:47:07.594Z,23.96
2023-08-02T15:52:10.763Z,23.93
2023-08-02T15:57:15.054Z,23.95
2023-08-02T16:02:19.420Z,23.94
2023-08-02T16:07:24.619Z,23.91
2023-08-02T16:12:28.880Z,23.80
2023-08-02T16:17:33.191Z,23.66
2023-08-02T16:22:37.214Z,23.54
2023-08-02T16:27:41.494Z,23.44
2023-08-02T16:32:45.949Z,23.36
2023-08-02T16:37:52.393Z,23.30
2023-08-02T16:42:56.520Z,23.23
2023-08-02T16:48:01.335Z,23.16
2023-08-02T16:53:05.302Z,23.11
2023-08-02T16:58:09.541Z,23.11
2023-08-02T17:03:13.938Z,23.11
2023-08-02T17:08:18.881Z,23.15
2023-08-02T17:13:24.429Z,23.16
2023-08-02T17:18:30.424Z,23.15
2023-08-02T17:23:33.550Z,23.11
2023-08-02T17:28:38.827Z,23.01
2023-08-02T17:33:42.970Z,22.90
2023-08-02T17:38:47.134Z,22.78
2023-08-02T17:43:51.257Z,22.63
2023-08-02T17:48:55.387Z,22.53
2023-08-02T17:54:00.208Z,22.42
2023-08-02T17:59:04.584Z,22.31
2023-08-02T18:04:15.686Z,22.22
2023-08-02T18:09:20.336Z,22.09
2023-08-02T18:14:25.579Z,21.98
2023-08-02T18:19:29.495Z,21.85
2023-08-02T18:24:38.659Z,21.72
2023-08-02T18:29:44.613Z,21.56
2023-08-02T18:34:48.742Z,21.43
2023-08-02T18:39:52.869Z,21.35
2023-08-02T18:44:57.199Z,21.25
2023-08-02T18:50:01.901Z,21.10
2023-08-02T18:55:06.883Z,20.95
2023-08-02T19:00:14.356Z,20.85
2023-08-02T19:05:18.485Z,20.74
2023-08-02T19:10:22.640Z,20.62
2023-08-02T19:15:29.053Z,20.51
2023-08-02T19:20:33.861Z,20.43
2023-08-02T19:25:40.879Z,20.34
2023-08-02T19:30:49.159Z,20.23
2023-08-02T19:35:53.759Z,20.16
2023-08-02T19:40:59.228Z,20.12
2023-08-02T19:46:03.558Z,20.05
2023-08-02T19:51:10.681Z,19.99
2023-08-02T19:56:20.217Z,19.92
2023-08-02T20:01:27.581Z,19.85
2023-08-02T20:06:34.568Z,19.77
2023-08-02T20:11:39.449Z,19.71
2023-08-02T20:16:43.818Z,19.64
2023-08-02T20:21:48.258Z,19.58
2023-08-02T20:26:54.035Z,19.48
2023-08-02T20:31:57.865Z,19.39
2023-08-02T20:37:02.408Z,19.35
2023-08-02T20:42:10.304Z,19.34
2023-08-02T20:47:18.618Z,19.31
2023-08-02T20:52:23.859Z,19.23
2023-08-02T20:57:28.424Z,19.14
2023-08-02T21:02:33.198Z,19.14
2023-08-02T21:07:39.979Z,19.15
2023-08-02T21:12:44.681Z,19.14
2023-08-02T21:17:49.497Z,19.17
2023-08-02T21:22:53.500Z,19.18
2023-08-02T21:27:57.527Z,19.16
2023-08-02T21:33:02.397Z,19.12
2023-08-02T21:38:15.192Z,19.06
2023-08-02T21:43:21.301Z,19.02
2023-08-02T21:48:25.278Z,19.00
2023-08-02T21:53:29.349Z,18.94
2023-08-02T21:58:37.525Z,18.90
2023-08-02T22:03:43.077Z,18.89
2023-08-02T22:08:47.253Z,18.92
2023-08-02T22:13:51.755Z,18.95
2023-08-02T22:18:55.692Z,18.98
2023-08-02T22:24:00.181Z,19.00
2023-08-02T22:29:04.023Z,19.00
2023-08-02T22:37:24.408Z,19.00
2023-08-02T22:42:28.457Z,18.98
2023-08-02T22:47:35.060Z,18.97
2023-08-02T22:52:40.856Z,18.91
2023-08-02T22:57:46.895Z,18.78
2023-08-02T23:02:51.301Z,18.66
2023-08-02T23:07:56.361Z,18.57
2023-08-02T23:13:03.517Z,18.53
2023-08-02T23:18:09.778Z,18.45
2023-08-02T23:23:22.427Z,18.41
2023-08-02T23:28:28.167Z,18.31
2023-08-02T23:33:33.324Z,18.21
2023-08-02T23:38:37.892Z,18.07
2023-08-02T23:43:41.829Z,17.98
2023-08-02T23:48:46.043Z,17.85
2023-08-02T23:53:50.139Z,17.76
2023-08-02T23:58:54.276Z,17.72
